Time;durP1;ratioP1;P1;durP2;ratioP2;P2;SDS_P1;SDS_P2;PMS_P1;PMS_P2;Temp;Humidity;BMP_temperature;BMP_pressure;BME280_temperature;BME280_humidity;BME280_pressure;Samples;Min_cycle;Max_cycle;Signal;HPM_P1;HPM_P2
2023/08/21 00:00:40;;;;;;;7.67;2.33;;;;;;;19.33;72.28;101934.69;4824816;29;20256;-69
2023/08/21 00:03:06;;;;;;;2.40;2.40;;;;;;;19.32;72.48;101924.88;4825316;29;20256;-68
2023/08/21 00:05:33;;;;;;;7.17;2.20;;;;;;;19.30;72.30;101924.22;4825270;29;20625;-68
2023/08/21 00:07:59;;;;;;;3.00;2.80;;;;;;;19.29;72.09;101916.25;4824614;29;20219;-68
2023/08/21 00:10:26;;;;;;;2.60;2.20;;;;;;;19.31;71.88;101922.34;4824708;29;20207;-68
2023/08/21 00:12:53;;;;;;;5.07;2.50;;;;;;;19.35;71.96;101926.41;4824683;29;20629;-68
2023/08/21 00:15:19;;;;;;;2.20;2.10;;;;;;;19.35;71.49;101920.97;4824595;29;20232;-68
2023/08/21 00:17:45;;;;;;;3.67;2.23;;;;;;;19.35;71.78;101920.97;4824872;29;20215;-68
2023/08/21 00:20:12;;;;;;;2.13;2.10;;;;;;;19.37;71.12;101925.19;4824528;29;20660;-68
2023/08/21 00:22:38;;;;;;;2.10;2.00;;;;;;;19.39;71.42;101925.00;4824794;29;20604;-68
2023/08/21 00:25:06;;;;;;;1.60;1.60;;;;;;;19.39;71.89;101925.81;4825108;29;20248;-68
2023/08/21 00:27:32;;;;;;;6.03;2.10;;;;;;;19.38;71.41;101929.59;4824341;29;20264;-68
2023/08/21 00:30:00;;;;;;;1.90;1.90;;;;;;;19.35;71.93;101923.69;4823225;29;20660;-68
2023/08/21 00:32:27;;;;;;;6.33;2.50;;;;;;;19.38;71.96;101937.72;4823222;29;20551;-68
2023/08/21 00:34:54;;;;;;;2.77;2.07;;;;;;;19.33;72.04;101929.28;4823213;29;20547;-68
2023/08/21 00:37:20;;;;;;;2.50;2.03;;;;;;;19.31;71.84;101925.06;4823048;29;20719;-69
2023/08/21 00:39:46;;;;;;;2.17;2.07;;;;;;;19.29;72.23;101929.81;4823140;29;20203;-68
2023/08/21 00:42:13;;;;;;;3.70;2.43;;;;;;;19.27;71.99;101918.28;4824307;29;20260;-68
2023/08/21 00:44:41;;;;;;;2.50;2.47;;;;;;;19.24;71.63;101916.78;4824221;29;20214;-68
2023/08/21 00:47:07;;;;;;;2.30;2.20;;;;;;;19.26;70.90;101919.34;4824642;29;20623;-68
2023/08/21 00:49:34;;;;;;;7.50;2.00;;;;;;;19.28;70.43;101917.28;4827827;29;20564;-68
2023/08/21 00:52:01;;;;;;;1.90;1.87;;;;;;;19.28;70.27;101917.28;4827835;29;20213;-68
2023/08/21 00:54:28;;;;;;;2.13;2.13;;;;;;;19.30;70.19;101915.25;4826517;29;20680;-68
2023/08/21 00:56:54;;;;;;;5.20;2.17;;;;;;;19.31;70.39;101908.81;4826498;29;20199;-68
2023/08/21 00:59:22;;;;;;;2.20;1.80;;;;;;;19.32;70.14;101919.44;4827637;29;20211;-68
2023/08/21 01:01:49;;;;;;;1.90;1.80;;;;;;;19.34;69.97;101916.56;4828142;29;20244;-68
2023/08/21 01:04:16;;;;;;;1.90;1.80;;;;;;;19.38;68.89;101916.03;4826394;29;20226;-68
2023/08/21 01:06:43;;;;;;;1.90;1.80;;;;;;;19.38;69.04;101910.59;4826276;29;20203;-67
2023/08/21 01:09:15;;;;;;;2.67;2.47;;;;;;;19.43;68.56;101913.66;4826140;29;20287;-68
2023/08/21 01:12:11;;;;;;;2.93;2.77;;;;;;;19.45;68.46;101908.03;4826265;29;20249;-68
2023/08/21 01:14:59;;;;;;;2.70;2.60;;;;;;;19.42;68.36;101906.50;4827405;29;20645;-68
2023/08/21 01:17:28;;;;;;;1.73;1.73;;;;;;;19.42;68.60;101909.22;4827490;29;20214;-68
2023/08/21 01:19:56;;;;;;;3.30;2.00;;;;;;;19.39;68.85;101906.84;4827505;29;20206;-68
2023/08/21 01:22:27;;;;;;;2.23;2.07;;;;;;;19.39;69.15;101914.97;4825999;29;20696;-68
2023/08/21 01:24:54;;;;;;;7.97;2.23;;;;;;;19.36;69.06;101904.50;4825995;29;20188;-68
2023/08/21 01:27:21;;;;;;;2.63;2.27;;;;;;;19.36;69.25;101914.50;4827098;29;20218;-69
2023/08/21 01:29:47;;;;;;;3.43;2.20;;;;;;;19.34;69.19;101917.41;4825790;29;20219;-68
2023/08/21 01:32:23;;;;;;;2.87;2.20;;;;;;;19.32;69.81;101919.44;4825822;29;20199;-68
2023/08/21 01:34:54;;;;;;;2.00;2.00;;;;;;;19.28;70.20;101917.28;4827308;29;20191;-67
2023/08/21 01:37:23;;;;;;;2.00;2.00;;;;;;;19.23;69.91;101906.13;4827888;29;20238;-67
2023/08/21 01:39:49;;;;;;;2.07;2.07;;;;;;;19.18;70.44;101906.66;4827241;29;20195;-67
2023/08/21 01:42:16;;;;;;;3.40;1.97;;;;;;;19.13;70.39;101904.50;4826905;29;20203;-67
2023/08/21 01:44:45;;;;;;;2.20;2.10;;;;;;;19.07;70.79;101899.78;4825653;29;20203;-67
2023/08/21 01:47:12;;;;;;;1.47;1.47;;;;;;;19.06;70.79;101902.66;4827511;29;20195;-68
2023/08/21 01:49:38;;;;;;;2.40;2.07;;;;;;;19.03;71.27;101906.59;4827259;29;20199;-68
2023/08/21 01:52:05;;;;;;;1.80;1.70;;;;;;;19.02;71.44;101913.00;4827235;29;20660;-68
2023/08/21 01:54:32;;;;;;;2.43;2.23;;;;;;;19.00;71.10;101923.22;4826717;29;20611;-68
2023/08/21 01:56:58;;;;;;;1.80;1.80;;;;;;;19.01;71.52;101913.22;4826883;29;20656;-69
2023/08/21 01:59:25;;;;;;;3.20;1.90;;;;;;;18.96;72.21;101919.16;4825555;29;20195;-68
2023/08/21 02:01:51;;;;;;;1.97;1.93;;;;;;;18.92;72.12;101915.13;4825603;29;20668;-68
2023/08/21 02:04:18;;;;;;;1.23;1.23;;;;;;;18.87;72.61;101914.81;4826606;29;20271;-68
2023/08/21 02:06:45;;;;;;;1.90;1.80;;;;;;;18.82;72.72;101905.50;4826509;29;20199;-68
2023/08/21 02:09:11;;;;;;;2.03;1.80;;;;;;;18.79;73.36;101908.56;4825154;29;20249;-68
2023/08/21 02:11:37;;;;;;;2.10;2.10;;;;;;;18.71;73.39;101906.75;4826418;29;20192;-68
2023/08/21 02:14:04;;;;;;;1.60;1.60;;;;;;;18.67;73.47;101908.13;4826425;29;20236;-68
2023/08/21 02:16:30;;;;;;;2.23;2.03;;;;;;;18.62;73.81;101911.38;4825168;29;20219;-68
2023/08/21 02:18:57;;;;;;;2.10;2.00;;;;;;;18.56;74.04;101912.06;4825047;29;20216;-68
2023/08/21 02:21:24;;;;;;;1.50;1.50;;;;;;;18.51;74.17;101905.44;4825102;29;20203;-67
2023/08/21 02:23:50;;;;;;;1.40;1.40;;;;;;;18.46;74.49;101911.38;4825043;29;20198;-67
2023/08/21 02:26:17;;;;;;;1.97;1.53;;;;;;;18.43;74.82;101917.13;4824993;29;20614;-67
2023/08/21 02:28:43;;;;;;;2.57;2.10;;;;;;;18.36;75.02;101918.84;4826066;29;20272;-68
2023/08/21 02:31:11;;;;;;;1.73;1.63;;;;;;;18.34;75.11;101917.31;4824928;29;20252;-68
2023/08/21 02:33:37;;;;;;;1.93;1.93;;;;;;;18.23;75.64;101916.69;4826094;29;20196;-68
2023/08/21 02:36:04;;;;;;;5.07;2.13;;;;;;;18.25;76.18;101925.47;4826015;29;20191;-68
2023/08/21 02:38:30;;;;;;;2.00;1.80;;;;;;;18.11;76.14;101923.47;4826081;29;20212;-68
2023/08/21 02:40:57;;;;;;;1.77;1.77;;;;;;;18.04;76.76;101922.47;4826110;29;20203;-68
2023/08/21 02:43:23;;;;;;;2.07;2.00;;;;;;;18.00;76.43;101925.69;4826435;29;20203;-68
2023/08/21 02:45:50;;;;;;;2.10;2.10;;;;;;;17.96;76.82;101924.31;4826161;29;20195;-68
2023/08/21 02:48:16;;;;;;;3.03;2.30;;;;;;;17.92;77.27;101923.81;4824535;29;20223;-68
2023/08/21 02:50:43;;;;;;;2.10;2.10;;;;;;;17.90;77.04;101922.31;4826090;29;20370;-68
2023/08/21 02:53:09;;;;;;;3.90;2.03;;;;;;;17.87;77.88;101934.31;4824569;29;20579;-68
2023/08/21 02:55:36;;;;;;;1.90;1.90;;;;;;;17.84;78.03;101928.41;4824623;29;20203;-68
2023/08/21 02:58:02;;;;;;;2.40;2.20;;;;;;;17.81;78.28;101935.00;4825663;29;20249;-68
2023/08/21 03:00:29;;;;;;;1.70;1.70;;;;;;;17.78;78.00;101927.19;4825943;29;20576;-68
2023/08/21 03:02:55;;;;;;;2.10;2.10;;;;;;;17.76;78.44;101926.53;4825926;29;20191;-68
2023/08/21 03:05:22;;;;;;;1.80;1.80;;;;;;;17.71;78.37;101923.50;4824390;29;20260;-68
2023/08/21 03:07:49;;;;;;;2.40;2.40;;;;;;;17.67;78.67;101924.84;4825550;29;20215;-68
2023/08/21 03:10:15;;;;;;;2.17;2.17;;;;;;;17.62;78.69;101919.94;4823958;29;20700;-68
2023/08/21 03:12:42;;;;;;;2.13;2.03;;;;;;;17.61;78.85;101928.25;4824267;29;20278;-68
2023/08/21 03:15:08;;;;;;;1.80;1.70;;;;;;;17.59;78.69;101922.16;4825997;29;20203;-68
2023/08/21 03:17:35;;;;;;;2.20;2.20;;;;;;;17.59;78.52;101922.16;4824393;29;20223;-68
2023/08/21 03:20:04;;;;;;;2.23;1.77;;;;;;;17.59;78.83;101923.00;4824163;29;20194;-68
2023/08/21 03:22:34;;;;;;;1.77;1.77;;;;;;;17.60;79.19;101927.41;4825624;29;20584;-68
2023/08/21 03:25:01;;;;;;;4.97;1.77;;;;;;;17.57;78.85;101927.69;4824289;29;20219;-68
2023/08/21 03:27:28;;;;;;;1.90;1.90;;;;;;;17.53;79.20;101918.22;4823833;29;20230;-68
2023/08/21 03:29:56;;;;;;;6.53;2.10;;;;;;;17.48;78.95;101914.34;4823939;29;20219;-68
2023/08/21 03:32:22;;;;;;;1.73;1.73;;;;;;;17.43;78.95;101905.88;4824022;29;20199;-67
2023/08/21 03:34:48;;;;;;;2.33;2.33;;;;;;;17.40;79.21;101906.22;4823950;29;20207;-67
2023/08/21 03:37:16;;;;;;;1.93;1.90;;;;;;;17.37;79.49;101904.69;4824129;29;20632;-67
2023/08/21 03:39:43;;;;;;;3.03;2.53;;;;;;;17.33;79.61;101895.22;4825085;29;20257;-67
2023/08/21 03:42:10;;;;;;;2.50;2.47;;;;;;;17.33;79.86;101904.19;4824830;29;20667;-67
2023/08/21 03:44:38;;;;;;;2.10;2.10;;;;;;;17.35;79.57;101904.84;4824306;29;20209;-68
2023/08/21 03:47:04;;;;;;;3.30;3.17;;;;;;;17.39;79.98;101904.53;4823730;29;20667;-68
2023/08/21 03:49:36;;;;;;;2.87;2.50;;;;;;;17.40;79.68;101904.34;4823968;29;20219;-68
2023/08/21 03:52:02;;;;;;;2.37;2.37;;;;;;;17.46;79.55;101908.25;4823744;29;20556;-68
2023/08/21 03:54:29;;;;;;;4.47;3.30;;;;;;;17.46;79.66;101906.38;4825470;29;20204;-68
2023/08/21 03:56:55;;;;;;;1.77;1.77;;;;;;;17.41;80.03;101908.75;4823640;29;20207;-68
2023/08/21 03:59:23;;;;;;;2.17;2.07;;;;;;;17.38;80.29;101906.38;4824789;29;20633;-68
2023/08/21 04:01:50;;;;;;;2.00;1.90;;;;;;;17.38;80.36;101908.22;4823596;29;20211;-68
2023/08/21 04:04:16;;;;;;;2.77;2.30;;;;;;;17.39;80.02;101909.94;4823580;29;20282;-68
2023/08/21 04:06:43;;;;;;;2.63;1.80;;;;;;;17.39;80.39;101912.63;4823800;29;20195;-68
2023/08/21 04:09:09;;;;;;;1.77;1.77;;;;;;;17.39;80.19;101918.03;4824636;29;20215;-68
2023/08/21 04:11:36;;;;;;;1.57;1.57;;;;;;;17.38;80.22;101914.50;4824729;29;20240;-68
2023/08/21 04:14:03;;;;;;;2.33;2.33;;;;;;;17.36;80.47;101916.50;4823436;29;20203;-68
2023/08/21 04:16:30;;;;;;;2.00;1.90;;;;;;;17.33;80.25;101916.84;4825067;29;20214;-68
2023/08/21 04:18:57;;;;;;;1.63;1.63;;;;;;;17.27;80.35;101918.34;4824602;29;20298;-68
2023/08/21 04:21:23;;;;;;;2.50;2.40;;;;;;;17.22;80.27;101920.72;4824493;29;20252;-68
2023/08/21 04:23:50;;;;;;;1.50;1.50;;;;;;;17.21;80.45;101918.19;4824523;29;20257;-68
2023/08/21 04:26:17;;;;;;;1.93;1.83;;;;;;;17.23;80.76;101924.25;4823256;29;20236;-68
2023/08/21 04:28:43;;;;;;;2.30;2.20;;;;;;;17.20;80.98;101930.84;4825136;29;20280;-68
2023/08/21 04:31:10;;;;;;;2.33;2.13;;;;;;;17.19;80.84;101931.00;4825008;29;20644;-68
2023/08/21 04:33:36;;;;;;;3.83;3.37;;;;;;;17.17;80.74;101922.22;4823725;29;20291;-68
2023/08/21 04:36:03;;;;;;;3.13;2.77;;;;;;;17.13;81.07;101920.88;4824316;29;20206;-68
2023/08/21 04:38:30;;;;;;;4.10;2.27;;;;;;;17.10;81.02;101922.03;4825073;29;20614;-68
2023/08/21 04:41:05;;;;;;;1.90;1.90;;;;;;;17.09;80.74;101922.22;4823229;29;20721;-68
2023/08/21 04:43:33;;;;;;;4.23;2.10;;;;;;;17.06;81.06;101923.38;4823685;29;20190;-68
2023/08/21 04:46:00;;;;;;;2.27;2.27;;;;;;;17.06;81.39;101922.53;4823828;29;20267;-68
2023/08/21 04:48:28;;;;;;;6.80;3.13;;;;;;;17.13;81.74;101927.13;4822853;29;20219;-68
2023/08/21 04:50:55;;;;;;;2.57;2.43;;;;;;;17.09;81.34;101941.97;4822994;29;20211;-68
2023/08/21 04:53:22;;;;;;;9.57;2.80;;;;;;;16.84;82.53;101941.03;4822986;29;20203;-68
2023/08/21 04:55:49;;;;;;;2.40;2.40;;;;;;;16.81;82.45;101956.69;4823472;29;20390;-68
2023/08/21 04:58:17;;;;;;;14.03;3.70;;;;;;;16.75;82.82;101950.13;4824138;29;20280;-68
2023/08/21 05:00:45;;;;;;;3.63;2.53;;;;;;;16.77;82.96;101952.63;4822985;29;20195;-68
2023/08/21 05:03:12;;;;;;;2.47;2.30;;;;;;;16.79;82.95;101947.94;4822897;29;20252;-68
2023/08/21 05:05:41;;;;;;;2.43;2.33;;;;;;;16.81;82.97;101938.66;4822817;29;20577;-68
2023/08/21 05:08:08;;;;;;;2.60;2.60;;;;;;;16.85;83.08;101947.25;4822763;29;20227;-68
2023/08/21 05:10:34;;;;;;;2.07;2.07;;;;;;;16.87;83.26;101953.38;4822713;29;20230;-68
2023/08/21 05:13:03;;;;;;;2.63;2.53;;;;;;;16.91;83.19;101946.63;4822998;29;20200;-68
2023/08/21 05:15:30;;;;;;;3.90;2.50;;;;;;;16.96;83.43;101951.53;4824506;29;20191;-68
2023/08/21 05:17:56;;;;;;;2.47;2.47;;;;;;;17.02;83.69;101948.16;4822625;29;20222;-68
2023/08/21 05:20:23;;;;;;;3.70;2.10;;;;;;;17.08;83.33;101945.69;4822872;29;20294;-68
2023/08/21 05:22:49;;;;;;;3.87;3.57;;;;;;;17.11;83.44;101948.03;4823915;29;20188;-68
2023/08/21 05:25:16;;;;;;;2.93;2.77;;;;;;;17.12;83.28;101949.75;4824112;29;20232;-68
2023/08/21 05:27:42;;;;;;;4.90;2.60;;;;;;;17.13;83.68;101943.34;4822534;29;20712;-68
2023/08/21 05:30:11;;;;;;;3.00;2.80;;;;;;;17.15;83.78;101946.69;4822464;29;20272;-68
2023/08/21 05:32:38;;;;;;;3.53;3.20;;;;;;;17.20;83.82;101943.50;4823980;29;20633;-68
2023/08/21 05:35:05;;;;;;;5.63;4.03;;;;;;;17.23;83.74;101945.88;4825180;29;20207;-68
2023/08/21 05:37:31;;;;;;;3.20;3.20;;;;;;;17.27;83.89;101939.97;4825785;29;20227;-68
2023/08/21 05:39:58;;;;;;;2.90;2.80;;;;;;;17.36;84.17;101947.09;4827100;29;20196;-68
2023/08/21 05:42:25;;;;;;;3.13;3.13;;;;;;;17.43;84.33;101939.16;4826851;29;20324;-68
2023/08/21 05:44:51;;;;;;;4.27;3.90;;;;;;;17.55;84.18;101942.38;4826119;29;20746;-68
2023/08/21 05:47:18;;;;;;;4.17;4.07;;;;;;;17.64;84.58;101947.69;4825495;29;20293;-68
2023/08/21 05:49:45;;;;;;;5.47;5.07;;;;;;;17.76;84.33;101949.03;4826699;29;20607;-67
2023/08/21 05:52:11;;;;;;;5.17;4.80;;;;;;;17.89;84.33;101953.94;4827234;29;20195;-67
2023/08/21 05:54:38;;;;;;;4.87;4.47;;;;;;;18.02;84.25;101961.53;4826673;29;20199;-67
2023/08/21 05:57:05;;;;;;;4.27;4.17;;;;;;;18.10;82.93;101964.25;4825380;29;20587;-68
2023/08/21 05:59:32;;;;;;;6.30;4.63;;;;;;;18.12;83.18;101957.63;4826624;29;20191;-68
2023/08/21 06:02:01;;;;;;;4.57;4.20;;;;;;;18.16;83.09;101952.75;4825322;29;20291;-67
2023/08/21 06:04:28;;;;;;;6.13;4.50;;;;;;;18.20;82.99;101964.91;4826562;29;20277;-67
2023/08/21 06:06:58;;;;;;;7.00;4.40;;;;;;;18.29;82.63;101968.47;4825556;29;20199;-67
2023/08/21 06:09:25;;;;;;;4.40;4.07;;;;;;;18.35;81.94;101957.78;4825129;29;20229;-68
2023/08/21 06:11:51;;;;;;;4.80;4.30;;;;;;;18.41;81.96;101964.38;4825235;29;20261;-68
2023/08/21 06:14:18;;;;;;;4.37;3.97;;;;;;;18.48;81.30;101960.78;4825151;29;20290;-68
2023/08/21 06:16:45;;;;;;;4.00;3.73;;;;;;;18.57;80.84;101961.66;4826256;29;20616;-68
2023/08/21 06:19:12;;;;;;;3.83;3.63;;;;;;;18.60;80.44;101964.00;4825225;29;20226;-67
2023/08/21 06:21:38;;;;;;;9.00;3.20;;;;;;;18.72;80.19;101962.59;4826794;29;20272;-67
2023/08/21 06:24:04;;;;;;;3.30;3.07;;;;;;;18.79;80.12;101958.19;4825247;29;20624;-67
2023/08/21 06:26:31;;;;;;;5.03;3.50;;;;;;;18.84;79.27;101953.06;4825022;29;20583;-67
2023/08/21 06:28:57;;;;;;;3.47;3.37;;;;;;;18.94;79.35;101956.44;4809836;29;20226;-67
2023/08/21 06:31:24;;;;;;;3.33;3.23;;;;;;;19.02;78.06;101942.84;4826630;29;20202;-68
2023/08/21 06:33:50;;;;;;;4.90;3.20;;;;;;;19.14;77.82;101954.13;4824886;29;20621;-68
2023/08/21 06:36:17;;;;;;;3.23;3.13;;;;;;;19.19;77.58;101951.72;4826045;29;20247;-68
2023/08/21 06:38:44;;;;;;;3.50;3.40;;;;;;;19.29;77.47;101952.34;4824810;29;20250;-68
2023/08/21 06:41:10;;;;;;;2.63;2.63;;;;;;;19.35;77.00;101959.75;4825908;29;20252;-68
2023/08/21 06:43:38;;;;;;;4.60;3.53;;;;;;;19.44;76.37;101956.00;4824712;29;20294;-68
2023/08/21 06:46:10;;;;;;;3.70;3.47;;;;;;;19.56;76.24;101962.69;4824377;29;20720;-67
2023/08/21 06:48:39;;;;;;;3.07;2.97;;;;;;;19.70;75.05;101954.81;4824624;29;20589;-68
2023/08/21 06:51:07;;;;;;;5.13;4.00;;;;;;;19.76;75.49;101957.66;4826316;29;20298;-67
2023/08/21 06:53:34;;;;;;;3.53;3.23;;;;;;;19.81;74.78;101960.66;4826381;29;20190;-67
2023/08/21 06:56:01;;;;;;;3.47;2.57;;;;;;;19.84;74.70;101956.75;4826048;29;20241;-68
2023/08/21 06:58:27;;;;;;;4.10;3.80;;;;;;;19.88;74.63;101956.19;4825712;29;20215;-68
2023/08/21 07:00:55;;;;;;;3.43;3.37;;;;;;;19.95;73.26;101962.56;4825662;29;20660;-67
2023/08/21 07:03:22;;;;;;;3.10;2.87;;;;;;;20.07;73.94;101963.81;4825925;29;20664;-68
2023/08/21 07:05:56;;;;;;;2.83;2.63;;;;;;;20.12;72.76;101959.69;4825876;29;20247;-68
2023/08/21 07:08:24;;;;;;;4.63;3.23;;;;;;;20.17;72.44;101963.56;4825469;29;20219;-68
2023/08/21 07:10:50;;;;;;;4.20;3.50;;;;;;;20.19;72.55;101969.66;4825499;29;20696;-68
2023/08/21 07:13:17;;;;;;;7.17;3.13;;;;;;;20.24;72.64;101966.41;4825721;29;20223;-68
2023/08/21 07:15:44;;;;;;;5.33;4.23;;;;;;;20.37;72.42;101966.63;4825452;29;20251;-68
2023/08/21 07:18:10;;;;;;;2.60;2.50;;;;;;;20.53;72.11;101966.47;4825365;29;20219;-68
2023/08/21 07:20:36;;;;;;;2.87;2.87;;;;;;;20.56;71.39;101962.53;4825413;29;20557;-68
2023/08/21 07:23:03;;;;;;;3.00;2.80;;;;;;;20.56;70.91;101971.53;4825303;29;20255;-68
2023/08/21 07:25:30;;;;;;;3.43;3.23;;;;;;;20.57;70.04;101975.09;4825338;29;20606;-67
2023/08/21 07:27:57;;;;;;;3.03;2.83;;;;;;;20.53;70.23;101974.63;4825675;29;20227;-68
2023/08/21 07:30:23;;;;;;;3.53;2.97;;;;;;;20.52;69.72;101973.78;4825690;29;20215;-67
2023/08/21 07:32:49;;;;;;;3.00;2.90;;;;;;;20.55;69.62;101975.25;4825193;29;20199;-68
2023/08/21 07:35:16;;;;;;;3.53;3.20;;;;;;;20.62;69.48;101981.66;4825476;29;20175;-67
2023/08/21 07:37:46;;;;;;;2.90;2.80;;;;;;;20.63;69.35;101986.03;4825133;29;20244;-68
2023/08/21 07:40:13;;;;;;;2.63;2.60;;;;;;;20.63;69.71;101991.47;4825202;29;20267;-68
2023/08/21 07:42:40;;;;;;;4.90;3.00;;;;;;;20.60;69.30;101988.28;4825087;29;20246;-67
2023/08/21 07:45:07;;;;;;;4.33;2.77;;;;;;;20.58;69.49;101983.03;4825055;29;20248;-67
2023/08/21 07:47:33;;;;;;;4.50;3.20;;;;;;;20.55;70.19;101974.41;4824832;29;20215;-68
2023/08/21 07:50:03;;;;;;;3.07;2.73;;;;;;;20.65;70.81;101975.84;4824962;29;20286;-68
2023/08/21 07:52:29;;;;;;;3.13;3.00;;;;;;;20.80;70.45;101982.09;4825230;29;20257;-68
2023/08/21 07:54:56;;;;;;;3.23;3.03;;;;;;;20.96;70.11;101978.38;4824964;29;20199;-68
2023/08/21 07:57:26;;;;;;;2.13;2.13;;;;;;;21.06;69.79;101976.19;4823999;29;20219;-69
2023/08/21 07:59:53;;;;;;;4.33;3.20;;;;;;;21.16;70.13;101987.66;4825085;29;20184;-67
2023/08/21 08:02:22;;;;;;;3.07;2.97;;;;;;;21.24;68.64;101978.53;4825350;29;20215;-67
2023/08/21 08:04:49;;;;;;;2.90;2.77;;;;;;;21.37;68.39;101976.81;4825027;29;20537;-67
2023/08/21 08:07:15;;;;;;;6.10;3.07;;;;;;;21.53;67.75;101977.59;4824710;29;20247;-67
2023/08/21 08:09:41;;;;;;;6.73;3.17;;;;;;;21.69;65.17;101980.06;4824734;29;20283;-68
2023/08/21 08:12:08;;;;;;;2.43;2.30;;;;;;;21.79;65.46;101984.16;4824667;29;20199;-67
2023/08/21 08:14:35;;;;;;;2.20;2.20;;;;;;;21.85;65.88;101977.91;4824654;29;20637;-68
2023/08/21 08:17:02;;;;;;;2.13;2.03;;;;;;;21.94;65.42;101975.13;4824778;29;20214;-69
2023/08/21 08:19:28;;;;;;;4.78;3.15;;;;;;;21.98;65.15;101977.22;4824657;29;20179;-67
2023/08/21 08:21:55;;;;;;;2.33;2.23;;;;;;;22.10;65.35;101981.13;4825141;29;20188;-67
2023/08/21 08:24:21;;;;;;;2.13;2.03;;;;;;;22.16;64.72;101980.31;4824560;29;20236;-67
2023/08/21 08:26:48;;;;;;;3.15;2.95;;;;;;;22.18;64.86;101972.81;4823351;29;20191;-67
2023/08/21 08:29:15;;;;;;;2.47;2.47;;;;;;;22.27;64.42;101976.22;4824391;29;20219;-67
2023/08/21 08:31:41;;;;;;;3.03;2.58;;;;;;;22.39;64.52;101977.38;4824281;29;20222;-68
2023/08/21 08:34:08;;;;;;;2.97;2.63;;;;;;;22.55;62.75;101977.06;4824339;29;20256;-67
2023/08/21 08:36:35;;;;;;;2.50;2.38;;;;;;;22.62;62.29;101963.44;4824537;29;20640;-67
2023/08/21 08:39:02;;;;;;;2.55;2.45;;;;;;;22.69;63.51;101970.69;4824466;29;20223;-67
2023/08/21 08:41:31;;;;;;;2.30;2.17;;;;;;;;;;4824625;29;20179;-67
2023/08/21 08:44:00;;;;;;;3.00;2.90;;;;;;;22.82;60.41;101967.19;4825094;29;20202;-67
2023/08/21 08:46:28;;;;;;;2.20;2.10;;;;;;;22.89;60.52;101959.03;4824785;29;20195;-68
2023/08/21 08:48:56;;;;;;;7.68;2.13;;;;;;;22.92;61.39;101967.63;4824440;29;20219;-67
2023/08/21 08:51:24;;;;;;;2.30;2.30;;;;;;;22.96;61.11;101968.91;4824277;29;20207;-68
2023/08/21 08:53:51;;;;;;;3.67;2.55;;;;;;;23.00;61.32;101974.84;4824182;29;20202;-67
2023/08/21 08:56:17;;;;;;;1.90;1.90;;;;;;;22.95;60.97;101978.16;4824426;29;20244;-68
2023/08/21 08:58:43;;;;;;;7.22;2.22;;;;;;;22.97;61.27;101977.94;4824069;29;20211;-68
2023/08/21 09:01:10;;;;;;;3.22;2.50;;;;;;;23.00;61.22;101972.91;4824371;29;20192;-68
2023/08/21 09:03:37;;;;;;;2.47;2.38;;;;;;;22.98;61.56;101966.00;4824234;29;20703;-68
2023/08/21 09:06:04;;;;;;;2.67;2.40;;;;;;;22.97;61.27;101972.47;4824314;29;20195;-68
2023/08/21 09:08:30;;;;;;;2.95;2.75;;;;;;;22.96;61.20;101976.25;4824854;29;20281;-68
2023/08/21 09:11:02;;;;;;;3.15;3.05;;;;;;;23.06;61.90;101977.56;4827405;29;20223;-67
2023/08/21 09:13:31;;;;;;;2.72;2.63;;;;;;;23.11;61.16;101979.69;4827976;29;20192;-68
2023/08/21 09:15:58;;;;;;;2.90;2.70;;;;;;;23.16;60.93;101979.94;4827457;29;20541;-68
2023/08/21 09:18:25;;;;;;;2.40;2.20;;;;;;;23.17;60.39;101971.53;4827432;29;20802;-69
2023/08/21 09:20:51;;;;;;;2.35;2.35;;;;;;;23.19;59.42;101974.06;4827255;29;20609;-69
2023/08/21 09:23:18;;;;;;;2.50;2.40;;;;;;;23.15;59.40;101960.00;4827809;29;20204;-68
2023/08/21 09:25:49;;;;;;;4.85;2.28;;;;;;;23.22;59.41;101963.56;4827138;29;20206;-68
2023/08/21 09:28:23;;;;;;;4.43;2.38;;;;;;;23.23;59.95;101954.34;4827608;29;20712;-67
2023/08/21 09:30:54;;;;;;;3.03;2.88;;;;;;;23.30;59.71;101962.53;4827095;29;20199;-67
2023/08/21 09:33:22;;;;;;;4.53;2.42;;;;;;;23.35;59.57;101951.00;4827476;29;20291;-69
2023/08/21 09:35:52;;;;;;;2.45;2.42;;;;;;;23.35;59.27;101954.59;4827022;29;20187;-68
2023/08/21 09:38:19;;;;;;;2.33;2.08;;;;;;;23.36;58.37;101948.09;4826861;29;20219;-69
2023/08/21 09:40:53;;;;;;;2.50;2.30;;;;;;;23.39;59.15;101961.31;4827192;29;20206;-69
2023/08/21 09:43:21;;;;;;;4.90;2.95;;;;;;;23.37;58.37;101957.13;4827196;29;20236;-69
2023/08/21 09:45:55;;;;;;;2.03;1.95;;;;;;;23.39;59.45;101952.28;4827461;29;20236;-69
2023/08/21 09:48:23;;;;;;;2.20;2.20;;;;;;;23.41;58.79;101953.78;4827092;29;20219;-68
2023/08/21 09:50:51;;;;;;;2.60;2.40;;;;;;;23.47;59.58;101960.31;4827256;29;20215;-67
2023/08/21 09:53:19;;;;;;;4.32;2.40;;;;;;;23.54;59.77;101963.91;4827559;29;20278;-67
2023/08/21 09:55:45;;;;;;;2.05;1.95;;;;;;;23.63;60.49;101962.69;4826755;29;20265;-68
2023/08/21 09:58:13;;;;;;;4.53;2.70;;;;;;;23.72;59.72;101960.59;4826750;29;20211;-67
2023/08/21 10:00:40;;;;;;;7.18;2.58;;;;;;;23.77;59.30;101961.63;4826896;29;20203;-67
2023/08/21 10:03:09;;;;;;;2.22;2.22;;;;;;;23.84;59.29;101956.19;4826601;29;20203;-67
2023/08/21 10:05:38;;;;;;;2.13;2.03;;;;;;;23.88;59.31;101958.28;4826530;29;20203;-68
2023/08/21 10:08:07;;;;;;;2.20;2.10;;;;;;;23.89;57.30;101953.69;4825235;29;20229;-68
2023/08/21 10:10:35;;;;;;;2.40;2.20;;;;;;;23.87;56.75;101956.59;4826360;29;20219;-69
2023/08/21 10:13:04;;;;;;;3.80;1.85;;;;;;;23.88;59.97;101946.53;4826723;29;20184;-67
2023/08/21 10:15:35;;;;;;;13.27;2.80;;;;;;;23.98;58.45;101947.78;4826362;29;20203;-68
2023/08/21 10:18:24;;;;;;;2.00;2.00;;;;;;;24.03;56.86;101938.94;4826548;29;20215;-68
2023/08/21 10:20:52;;;;;;;8.73;1.80;;;;;;;24.01;56.98;101938.34;4825670;29;20183;-68
2023/08/21 10:23:26;;;;;;;2.40;2.25;;;;;;;24.06;57.06;101942.09;4826611;29;20183;-68
2023/08/21 10:26:00;;;;;;;3.35;2.47;;;;;;;24.11;56.47;101938.72;4826265;29;20187;-68
2023/08/21 10:28:51;;;;;;;4.20;2.65;;;;;;;24.11;56.62;101941.47;4826258;29;20218;-69
2023/08/21 10:31:31;;;;;;;2.38;2.28;;;;;;;24.23;56.52;101938.97;4826626;29;20239;-68
2023/08/21 10:34:00;;;;;;;3.00;2.35;;;;;;;24.27;57.56;101937.50;4826166;29;20195;-69
2023/08/21 10:36:44;;;;;;;2.40;2.28;;;;;;;24.21;56.92;101936.44;4826336;29;20188;-69
2023/08/21 10:39:23;;;;;;;2.65;2.65;;;;;;;24.21;57.45;101947.38;4826393;29;20217;-68
2023/08/21 10:42:03;;;;;;;3.70;2.17;;;;;;;24.18;57.50;101944.25;4826308;29;20184;-67
2023/08/21 10:44:42;;;;;;;2.42;2.42;;;;;;;24.20;56.91;101942.13;4826254;29;20180;-67
2023/08/21 10:47:19;;;;;;;2.17;2.17;;;;;;;24.16;56.79;101941.72;4826417;29;20180;-68
2023/08/21 10:49:56;;;;;;;2.00;1.98;;;;;;;24.13;57.31;101947.56;4825884;29;20260;-67
2023/08/21 10:52:26;;;;;;;3.17;2.95;;;;;;;24.17;56.83;101957.06;4826385;29;20240;-67
2023/08/21 10:54:54;;;;;;;2.20;2.10;;;;;;;24.24;57.66;101938.75;4825823;29;20266;-67
2023/08/21 10:57:25;;;;;;;2.50;2.40;;;;;;;24.26;57.30;101947.59;4825939;29;20294;-68
2023/08/21 11:00:00;;;;;;;2.60;2.50;;;;;;;24.25;56.43;101945.91;4826262;29;20192;-67
2023/08/21 11:02:30;;;;;;;2.47;2.47;;;;;;;24.27;56.50;101938.34;4825738;29;20179;-67
2023/08/21 11:04:58;;;;;;;2.95;2.85;;;;;;;24.34;55.13;101943.78;4826450;29;20652;-68
2023/08/21 11:07:25;;;;;;;3.03;2.63;;;;;;;24.26;56.68;101933.94;4825633;29;20310;-67
2023/08/21 11:09:52;;;;;;;2.72;2.58;;;;;;;24.31;56.92;101941.50;4825845;29;20282;-67
2023/08/21 11:12:23;;;;;;;3.03;2.80;;;;;;;24.35;56.07;101934.56;4825746;29;20264;-68
2023/08/21 11:14:50;;;;;;;2.63;2.47;;;;;;;24.36;57.01;101931.59;4825590;29;20263;-67
2023/08/21 11:17:20;;;;;;;3.08;3.00;;;;;;;24.42;58.02;101938.94;4825739;29;20206;-67
2023/08/21 11:19:48;;;;;;;2.65;2.65;;;;;;;24.54;56.35;101944.59;4825392;29;20668;-67
2023/08/21 11:22:15;;;;;;;2.50;2.40;;;;;;;24.60;54.79;101938.28;4825371;29;20236;-68
2023/08/21 11:24:50;;;;;;;3.10;3.00;;;;;;;24.65;55.34;101943.09;4825352;29;20267;-68
2023/08/21 11:27:18;;;;;;;2.80;2.80;;;;;;;24.63;55.93;101939.72;4825553;29;20179;-69
2023/08/21 11:29:50;;;;;;;2.22;2.22;;;;;;;24.61;54.88;101941.84;4825202;29;20247;-67